Time;durP1;ratioP1;P1;durP2;ratioP2;P2;SDS_P1;SDS_P2;PMS_P1;PMS_P2;Temp;Humidity;BMP_temperature;BMP_pressure;BME280_temperature;BME280_humidity;BME280_pressure;Samples;Min_cycle;Max_cycle;Signal;HPM_P1;HPM_P2
2021/03/20 00:04:40;;;;;;;10.07;3.95;;;;;;;0.28;45.73;98953.25;10501809;28;20048;-53
2021/03/20 00:09:43;;;;;;;9.98;3.63;;;;;;;0.26;46.05;98955.94;10502018;28;20131;-52
2021/03/20 00:14:44;;;;;;;10.45;3.78;;;;;;;0.22;45.85;98954.44;10501528;28;20135;-51
2021/03/20 00:19:46;;;;;;;11.77;3.85;;;;;;;0.12;46.32;98948.09;10500546;28;20090;-50
2021/03/20 00:24:49;;;;;;;9.70;3.47;;;;;;;0.05;46.01;98946.75;10501443;28;20063;-52
2021/03/20 00:29:50;;;;;;;7.13;2.83;;;;;;;0.01;45.87;98955.59;10505867;28;20059;-52
2021/03/20 00:34:52;;;;;;;8.07;3.28;;;;;;;-0.03;46.12;98945.44;10502665;28;20057;-51
2021/03/20 00:39:54;;;;;;;12.32;3.05;;;;;;;-0.06;45.77;98937.03;10505328;28;20048;-51
2021/03/20 00:44:56;;;;;;;8.52;3.92;;;;;;;-0.07;46.06;98949.06;10507760;28;20184;-50
2021/03/20 00:49:58;;;;;;;8.95;2.85;;;;;;;-0.07;45.50;98933.56;10547336;28;20043;-52
2021/03/20 00:55:01;;;;;;;7.93;2.78;;;;;;;-0.15;46.04;98940.94;10545055;28;20044;-50
2021/03/20 01:00:05;;;;;;;10.30;3.40;;;;;;;-0.20;46.33;98936.91;10542553;28;20044;-51
2021/03/20 01:05:09;;;;;;;8.35;2.88;;;;;;;-0.20;45.72;98937.75;10550504;28;20052;-52
2021/03/20 01:10:17;;;;;;;8.40;3.42;;;;;;;-0.20;45.65;98945.50;10551706;28;20105;-51
2021/03/20 01:15:19;;;;;;;12.30;3.40;;;;;;;-0.21;45.98;98946.41;10550193;28;20043;-51
2021/03/20 01:20:20;;;;;;;6.72;3.25;;;;;;;-0.25;45.45;98943.16;10549127;28;20084;-55
2021/03/20 01:25:23;;;;;;;7.25;2.78;;;;;;;-0.26;45.89;98943.25;10548665;28;20113;-52
2021/03/20 01:30:28;;;;;;;7.47;3.05;;;;;;;-0.30;45.92;98947.72;10550384;28;20063;-50
2021/03/20 01:35:30;;;;;;;7.05;2.75;;;;;;;-0.33;45.90;98947.06;10552434;28;20059;-56
2021/03/20 01:40:36;;;;;;;9.95;3.35;;;;;;;-0.38;45.98;98949.03;10553467;28;20059;-52
2021/03/20 01:45:38;;;;;;;8.27;2.35;;;;;;;-0.39;45.86;98957.72;10550713;28;20047;-52
2021/03/20 01:50:46;;;;;;;10.07;3.72;;;;;;;-0.42;46.23;98960.47;10550638;28;20048;-52
2021/03/20 01:55:48;;;;;;;5.88;2.78;;;;;;;-0.40;46.13;98961.19;10551020;28;20071;-57
2021/03/20 02:00:58;;;;;;;9.93;3.28;;;;;;;-0.41;45.81;98960.38;10554427;28;20040;-52
2021/03/20 02:06:01;;;;;;;7.63;3.08;;;;;;;-0.36;45.63;98962.72;10551359;28;20437;-51
2021/03/20 02:11:14;;;;;;;9.07;3.53;;;;;;;-0.37;45.16;98961.03;10549936;28;20044;-58
2021/03/20 02:16:19;;;;;;;7.05;2.92;;;;;;;-0.41;45.33;98962.13;10547662;28;20048;-51
2021/03/20 02:21:26;;;;;;;8.05;3.63;;;;;;;-0.48;45.53;98965.03;10546723;28;20066;-51
2021/03/20 02:27:09;;;;;;;7.75;3.65;;;;;;;-0.54;45.68;98962.75;10548280;28;20044;-52
2021/03/20 02:32:26;;;;;;;10.10;3.70;;;;;;;-0.59;45.86;98972.47;10548607;28;20044;-52
2021/03/20 02:37:37;;;;;;;8.45;4.00;;;;;;;-0.60;45.97;98973.41;10546425;28;20059;-52
2021/03/20 02:42:46;;;;;;;9.95;4.07;;;;;;;-0.62;45.62;98974.38;10546844;28;20070;-52
2021/03/20 02:47:54;;;;;;;10.20;4.00;;;;;;;-0.68;46.14;98967.78;10547911;28;20504;-50
2021/03/20 02:53:04;;;;;;;10.73;4.07;;;;;;;-0.73;45.84;98968.03;10551493;28;20079;-52
2021/03/20 02:58:11;;;;;;;8.25;3.45;;;;;;;-0.72;45.87;98974.00;10547295;28;20035;-50
2021/03/20 03:03:15;;;;;;;9.40;3.92;;;;;;;-0.75;45.41;98977.59;10549738;28;20048;-51
2021/03/20 03:08:22;;;;;;;8.43;3.90;;;;;;;-0.84;45.98;98980.63;10549766;28;20048;-51
2021/03/20 03:13:26;;;;;;;7.65;3.58;;;;;;;-0.97;46.87;98977.81;10545487;28;20055;-50
2021/03/20 03:18:32;;;;;;;8.52;3.38;;;;;;;-1.00;46.54;98988.28;10546554;28;20515;-51
2021/03/20 03:23:37;;;;;;;8.73;3.75;;;;;;;-0.99;46.70;98978.81;10544706;28;20060;-52
2021/03/20 03:28:40;;;;;;;10.77;3.35;;;;;;;-0.96;46.39;98983.81;10545098;28;20044;-51
2021/03/20 03:33:53;;;;;;;9.90;4.53;;;;;;;-0.91;46.34;98987.00;10546703;28;20454;-52
2021/03/20 03:39:02;;;;;;;11.13;3.05;;;;;;;-0.83;46.25;98994.34;10548652;28;20125;-51
2021/03/20 03:44:07;;;;;;;7.68;3.45;;;;;;;-0.37;46.70;98992.88;10544549;28;20058;-51
2021/03/20 03:49:12;;;;;;;7.18;3.90;;;;;;;0.63;47.25;98997.84;10546353;28;20072;-50
2021/03/20 03:54:14;;;;;;;7.18;2.95;;;;;;;1.84;47.02;98986.44;10547573;28;20043;-55
2021/03/20 03:59:19;;;;;;;7.43;3.55;;;;;;;2.95;46.29;98992.47;10549758;28;20062;-56
2021/03/20 04:04:42;;;;;;;6.53;2.42;;;;;;;4.13;45.62;98993.13;10549266;28;20054;-53
2021/03/20 04:09:55;;;;;;;5.55;2.40;;;;;;;5.47;44.25;98994.69;10546765;28;20054;-51
2021/03/20 04:15:05;;;;;;;6.88;2.40;;;;;;;6.54;43.06;99003.00;10543128;28;20100;-52
2021/03/20 04:20:18;;;;;;;5.32;2.25;;;;;;;7.41;42.09;98998.50;10545357;28;20047;-56
2021/03/20 04:25:39;;;;;;;9.07;2.78;;;;;;;8.73;40.94;99010.75;10544752;28;20048;-56
2021/03/20 04:30:44;;;;;;;6.32;2.50;;;;;;;10.30;39.41;99002.50;10543008;28;20052;-51
2021/03/20 04:35:52;;;;;;;6.35;3.00;;;;;;;11.46;37.49;99001.66;10538005;28;20053;-52
2021/03/20 04:40:55;;;;;;;5.90;3.53;;;;;;;13.05;35.94;98999.34;10535742;28;20392;-53
2021/03/20 04:46:00;;;;;;;5.55;2.72;;;;;;;14.22;33.63;98993.59;10553317;28;20054;-53
2021/03/20 04:51:08;;;;;;;6.15;2.45;;;;;;;15.32;31.90;98992.63;10554162;28;20048;-52
2021/03/20 04:56:18;;;;;;;5.55;2.85;;;;;;;15.88;29.79;99001.06;10524500;28;20443;-53
2021/03/20 05:01:32;;;;;;;5.15;2.55;;;;;;;16.42;29.15;99002.59;10499947;28;20116;-53
2021/03/20 05:06:36;;;;;;;5.93;2.55;;;;;;;17.42;28.26;98999.97;10534789;28;20052;-53
2021/03/20 05:11:44;;;;;;;6.43;2.50;;;;;;;18.47;27.20;98997.34;10556880;28;20048;-54
2021/03/20 05:16:50;;;;;;;6.20;2.67;;;;;;;19.40;25.33;99002.94;10554973;28;20116;-55
2021/03/20 05:21:54;;;;;;;7.05;2.90;;;;;;;20.18;24.25;98998.53;10551733;28;20071;-53
2021/03/20 05:26:57;;;;;;;8.82;3.00;;;;;;;21.46;23.09;98995.00;10568850;28;20048;-52
2021/03/20 05:32:01;;;;;;;5.35;2.63;;;;;;;21.81;22.39;98986.44;10545856;28;20058;-53
2021/03/20 05:37:05;;;;;;;6.50;2.67;;;;;;;22.72;20.87;98985.63;10549154;28;20076;-53
2021/03/20 05:42:22;;;;;;;5.28;2.60;;;;;;;23.35;19.64;99000.38;10542404;28;20058;-54
2021/03/20 05:47:35;;;;;;;4.80;2.60;;;;;;;23.43;17.69;98988.50;10544863;28;20040;-53
2021/03/20 05:52:52;;;;;;;6.75;3.20;;;;;;;24.48;17.64;98986.81;10550100;28;20048;-53
2021/03/20 05:58:04;;;;;;;5.07;2.80;;;;;;;25.21;17.18;98986.00;10551528;28;20472;-53
2021/03/20 06:03:30;;;;;;;7.95;2.75;;;;;;;26.27;15.87;98989.75;10549381;28;20071;-53
2021/03/20 06:08:47;;;;;;;6.35;2.92;;;;;;;26.73;15.71;98987.63;10548126;28;20063;-53
2021/03/20 06:14:02;;;;;;;4.32;2.30;;;;;;;27.64;14.72;98984.91;10550621;28;20494;-53
2021/03/20 06:19:20;;;;;;;7.00;2.50;;;;;;;27.63;14.16;98982.47;10548330;28;20050;-54
2021/03/20 06:24:53;;;;;;;5.20;2.50;;;;;;;26.77;13.80;98986.03;10547348;28;20475;-54
2021/03/20 06:29:59;;;;;;;5.32;2.50;;;;;;;24.61;14.54;98983.84;10547320;28;20082;-53
2021/03/20 06:35:07;;;;;;;3.90;2.00;;;;;;;24.42;14.38;98982.41;10547461;28;20484;-54
2021/03/20 06:40:21;;;;;;;4.43;1.85;;;;;;;23.75;13.27;98990.88;10546381;28;20384;-55
2021/03/20 06:45:25;;;;;;;4.88;2.08;;;;;;;23.49;14.26;98978.69;10543575;28;20093;-53
2021/03/20 06:50:33;;;;;;;4.70;2.22;;;;;;;23.22;13.64;98984.50;10531168;28;20132;-54
2021/03/20 06:55:38;;;;;;;5.70;2.60;;;;;;;24.19;12.62;98976.00;10546688;28;20066;-53
2021/03/20 07:00:40;;;;;;;5.30;2.40;;;;;;;22.90;13.06;98976.69;10541830;28;20047;-53
2021/03/20 07:05:47;;;;;;;4.87;2.53;;;;;;;24.28;12.13;98971.06;10543233;28;20191;-54
2021/03/20 07:10:53;;;;;;;5.15;2.15;;;;;;;26.32;11.51;98973.63;10567475;28;20039;-56
2021/03/20 07:16:07;;;;;;;6.75;2.70;;;;;;;27.51;10.12;98975.38;10557060;28;20068;-59
2021/03/20 07:21:34;;;;;;;4.90;2.15;;;;;;;27.60;10.01;98958.69;10508106;28;20437;-60
2021/03/20 07:26:53;;;;;;;4.78;1.95;;;;;;;27.99;9.36;98954.63;10509132;28;20044;-54
2021/03/20 07:31:58;;;;;;;5.28;2.10;;;;;;;28.98;9.31;98960.06;10542643;28;20036;-53
2021/03/20 07:37:06;;;;;;;5.72;2.10;;;;;;;30.39;8.22;98950.34;10545709;28;20158;-53
2021/03/20 07:42:28;;;;;;;8.52;2.70;;;;;;;31.74;8.35;98950.69;10544841;28;20044;-55
2021/03/20 07:47:33;;;;;;;5.15;2.17;;;;;;;33.09;7.90;98937.81;10528783;28;20040;-54
2021/03/20 07:52:35;;;;;;;5.15;2.28;;;;;;;33.82;7.45;98945.25;10551545;28;20052;-60
2021/03/20 07:57:39;;;;;;;6.88;2.40;;;;;;;35.55;6.84;98942.44;10529793;28;20082;-54
2021/03/20 08:03:04;;;;;;;7.70;2.17;;;;;;;36.02;6.55;98934.56;10544606;28;20048;-55
2021/03/20 08:08:27;;;;;;;8.48;2.22;;;;;;;37.02;5.77;98925.53;10543569;28;20286;-58
2021/03/20 08:13:40;;;;;;;10.15;2.75;;;;;;;37.21;5.86;98932.59;10542693;28;20132;-56
2021/03/20 08:18:42;;;;;;;7.63;2.35;;;;;;;37.61;5.46;98929.59;10541849;28;20044;-55
2021/03/20 08:24:08;;;;;;;10.38;2.78;;;;;;;37.93;5.43;98931.72;10544994;28;20059;-55
2021/03/20 08:29:21;;;;;;;6.43;2.58;;;;;;;37.15;5.18;98934.69;10526898;28;20400;-56
2021/03/20 08:34:38;;;;;;;7.65;2.17;;;;;;;37.50;5.21;98932.69;10543256;28;20044;-55
2021/03/20 08:39:59;;;;;;;6.30;2.45;;;;;;;38.54;4.59;98925.03;10542282;28;20075;-55
2021/03/20 08:45:17;;;;;;;5.47;2.00;;;;;;;38.26;4.46;98916.50;10541913;28;20262;-56
2021/03/20 08:50:28;;;;;;;4.50;1.73;;;;;;;38.92;3.90;98908.41;10544373;28;20048;-62
2021/03/20 08:55:38;;;;;;;;;;;;;;;38.30;5.95;98918.25;10549049;28;20099;-56
2021/03/20 09:00:47;;;;;;;5.00;2.40;;;;;;;38.25;4.54;98918.44;10542498;28;19924;-56
2021/03/20 09:05:55;;;;;;;7.07;2.17;;;;;;;38.18;4.08;98909.94;10542646;28;20036;-57
2021/03/20 09:11:04;;;;;;;5.50;2.53;;;;;;;37.60;4.47;98911.53;10543534;28;20047;-55
2021/03/20 09:16:14;;;;;;;5.93;2.30;;;;;;;35.67;4.13;98896.19;10543017;28;20210;-56
2021/03/20 09:21:16;;;;;;;7.22;2.15;;;;;;;34.65;4.45;98896.06;10544141;28;20090;-56
2021/03/20 09:26:37;;;;;;;6.25;2.20;;;;;;;35.23;4.58;98889.72;10564860;28;20052;-56
2021/03/20 09:31:59;;;;;;;7.97;2.53;;;;;;;35.39;4.54;98886.56;10551117;28;20400;-55
2021/03/20 09:37:01;;;;;;;9.87;2.87;;;;;;;35.17;4.47;98890.97;10551287;28;20100;-55
2021/03/20 09:42:04;;;;;;;5.97;2.60;;;;;;;33.61;4.70;98894.97;10572783;28;20089;-57
2021/03/20 09:47:25;;;;;;;6.90;3.00;;;;;;;32.98;5.48;98889.00;10576971;28;20060;-55
2021/03/20 09:52:43;;;;;;;10.43;2.92;;;;;;;31.97;5.88;98881.19;10559041;28;20048;-57
2021/03/20 09:57:53;;;;;;;6.20;2.40;;;;;;;31.05;6.17;98870.44;10560735;28;20044;-55
2021/03/20 10:02:55;;;;;;;7.15;2.55;;;;;;;26.64;7.68;98879.44;10549914;28;20044;-54
2021/03/20 10:08:00;;;;;;;7.25;2.80;;;;;;;22.57;9.86;98872.72;10546510;28;20040;-55
2021/03/20 10:13:13;;;;;;;7.18;2.97;;;;;;;19.46;10.78;98875.00;10550082;28;20142;-54
2021/03/20 10:18:25;;;;;;;5.53;2.47;;;;;;;17.19;11.90;98872.72;10549383;28;20353;-54
2021/03/20 10:23:38;;;;;;;6.82;2.85;;;;;;;15.53;12.91;98873.56;10545430;28;20074;-54
2021/03/20 10:28:44;;;;;;;6.75;2.85;;;;;;;14.34;13.73;98858.38;10546709;28;20040;-54
2021/03/20 10:33:48;;;;;;;5.70;2.60;;;;;;;13.93;14.03;98855.97;10544729;28;20408;-54
2021/03/20 10:38:50;;;;;;;7.13;2.95;;;;;;;13.29;14.31;98854.22;10546016;28;20105;-56
2021/03/20 10:43:55;;;;;;;8.25;2.90;;;;;;;12.19;15.18;98850.25;10544428;28;20105;-56
2021/03/20 10:49:00;;;;;;;8.00;2.83;;;;;;;11.73;15.85;98845.34;10544755;28;20357;-54
2021/03/20 10:54:09;;;;;;;6.13;2.42;;;;;;;10.93;16.31;98843.91;10547963;28;20428;-54
2021/03/20 10:59:13;;;;;;;5.88;2.10;;;;;;;10.25;16.91;98836.59;10545127;28;20491;-53
2021/03/20 11:04:27;;;;;;;6.10;2.45;;;;;;;9.86;17.28;98836.88;10545822;28;20054;-53
2021/03/20 11:09:31;;;;;;;6.93;2.35;;;;;;;9.49;17.55;98829.88;10546655;28;20054;-55
2021/03/20 11:14:46;;;;;;;5.03;2.60;;;;;;;8.90;18.20;98834.47;10546004;28;20052;-53
2021/03/20 11:19:57;;;;;;;5.35;2.50;;;;;;;8.68;18.27;98824.28;10546619;28;20391;-55
2021/03/20 11:25:01;;;;;;;5.18;2.78;;;;;;;8.52;18.65;98814.38;10548721;28;20060;-56
2021/03/20 11:30:06;;;;;;;;;;;;;;;8.38;18.45;98812.19;10545663;28;20420;-55
2021/03/20 11:35:13;;;;;;;;;;;;;;;8.13;18.82;98816.16;10545109;28;19923;-56
2021/03/20 11:40:25;;;;;;;5.30;2.25;;;;;;;8.33;19.43;98803.91;10544615;28;19934;-55
2021/03/20 11:45:30;;;;;;;7.53;2.10;;;;;;;8.60;19.29;98796.19;10543664;28;20040;-54
2021/03/20 11:50:35;;;;;;;7.38;2.67;;;;;;;8.70;19.07;98786.50;10544671;28;20389;-52
2021/03/20 11:55:40;;;;;;;6.88;2.47;;;;;;;8.54;19.23;98781.03;10546622;28;20503;-53
2021/03/20 12:00:44;;;;;;;4.68;2.13;;;;;;;8.49;19.29;98768.34;10547039;28;20048;-56
2021/03/20 12:05:46;;;;;;;;;;;;;;;8.42;19.27;98766.44;10550827;28;20589;-53
2021/03/20 12:10:56;;;;;;;5.65;2.55;;;;;;;8.34;19.79;98753.16;10548044;28;19927;-56
2021/03/20 12:15:58;;;;;;;7.22;2.72;;;;;;;8.21;20.01;98749.03;10549772;28;20067;-61
2021/03/20 12:21:06;;;;;;;6.80;3.33;;;;;;;8.07;20.37;98749.47;10548358;28;20056;-55
2021/03/20 12:26:19;;;;;;;8.55;3.50;;;;;;;8.15;20.66;98739.13;10542971;28;20513;-56
2021/03/20 12:31:30;;;;;;;5.65;2.22;;;;;;;8.33;20.40;98741.06;10543255;28;20109;-53
2021/03/20 12:36:39;;;;;;;5.10;2.25;;;;;;;8.15;20.39;98727.84;10541338;28;20047;-54
2021/03/20 12:41:43;;;;;;;7.72;2.65;;;;;;;7.78;20.54;98721.50;10542046;28;20052;-53
2021/03/20 12:46:46;;;;;;;8.43;2.60;;;;;;;7.40;21.41;98734.53;10542536;28;20469;-52
2021/03/20 12:51:50;;;;;;;6.25;2.92;;;;;;;7.14;21.44;98722.78;10541835;28;20052;-53
2021/03/20 12:56:52;;;;;;;4.85;2.38;;;;;;;6.89;21.53;98707.53;10546133;28;20071;-55
2021/03/20 13:01:54;;;;;;;6.10;2.22;;;;;;;6.69;21.57;98704.84;10549878;28;20059;-53
2021/03/20 13:06:56;;;;;;;5.82;2.50;;;;;;;6.62;22.08;98697.66;10551598;28;20047;-55
2021/03/20 13:11:58;;;;;;;5.45;2.13;;;;;;;6.39;22.26;98703.03;10550122;28;20058;-53
2021/03/20 13:17:00;;;;;;;7.55;1.98;;;;;;;6.29;22.22;98694.34;10549400;28;20044;-55
2021/03/20 13:22:03;;;;;;;5.72;1.83;;;;;;;6.22;22.71;98688.81;10549453;28;20056;-54
2021/03/20 13:27:08;;;;;;;;;;;;;;;6.17;22.53;98675.31;10552835;28;20059;-55
2021/03/20 13:32:10;;;;;;;8.13;2.00;;;;;;;5.86;22.86;98668.34;10550693;28;19977;-53
2021/03/20 13:37:12;;;;;;;6.20;2.38;;;;;;;5.66;23.15;98662.13;10548581;28;20059;-53
2021/03/20 13:42:14;;;;;;;5.80;2.10;;;;;;;5.49;23.22;98656.53;10548515;28;20113;-53
2021/03/20 13:47:15;;;;;;;5.13;2.00;;;;;;;5.35;23.04;98656.78;10547093;28;20476;-53
2021/03/20 13:52:18;;;;;;;6.00;2.33;;;;;;;5.25;23.32;98648.06;10549390;28;20048;-53
2021/03/20 13:57:19;;;;;;;6.18;2.35;;;;;;;5.20;23.69;98642.38;10549298;28;20456;-53
2021/03/20 14:02:21;;;;;;;4.45;1.83;;;;;;;5.36;23.58;98626.34;10549273;28;20060;-54
2021/03/20 14:07:29;;;;;;;6.03;2.42;;;;;;;5.39;23.73;98615.66;10547024;28;20049;-52
2021/03/20 14:12:30;;;;;;;7.60;3.05;;;;;;;5.24;23.96;98633.41;10546235;28;20052;-52
2021/03/20 14:17:32;;;;;;;7.05;3.03;;;;;;;5.30;23.93;98612.88;10549040;28;20047;-52
2021/03/20 14:22:35;;;;;;;5.82;1.60;;;;;;;5.41;23.80;98604.16;10547253;28;20649;-54
2021/03/20 14:27:36;;;;;;;9.23;2.40;;;;;;;5.57;23.63;98613.34;10547604;28;20040;-58
2021/03/20 14:32:38;;;;;;;7.63;2.50;;;;;;;5.66;23.76;98605.59;10551102;28;20047;-61
2021/03/20 14:37:40;;;;;;;7.55;1.92;;;;;;;5.63;23.56;98611.06;10550431;28;20326;-53
2021/03/20 14:42:42;;;;;;;3.83;1.63;;;;;;;5.48;23.65;98599.28;10547007;28;20071;-55
2021/03/20 14:47:43;;;;;;;4.97;2.03;;;;;;;5.21;24.17;98592.78;10546225;28;20063;-53
2021/03/20 14:52:46;;;;;;;5.50;2.30;;;;;;;5.13;24.10;98589.13;10546020;28;20083;-52
2021/03/20 14:57:47;;;;;;;7.03;2.50;;;;;;;5.05;24.69;98574.94;10545903;28;20047;-55
2021/03/20 15:02:49;;;;;;;7.55;1.85;;;;;;;4.97;24.47;98564.31;10548597;28;20052;-53
2021/03/20 15:07:53;;;;;;;5.40;2.40;;;;;;;4.80;24.35;98570.03;10550029;28;20101;-55
2021/03/20 15:12:55;;;;;;;4.55;1.73;;;;;;;4.58;24.61;98547.47;10547320;28;20048;-55
2021/03/20 15:17:57;;;;;;;5.30;2.22;;;;;;;4.30;25.02;98554.03;10546623;28;20075;-57
2021/03/20 15:23:00;;;;;;;5.53;1.80;;;;;;;4.13;25.17;98547.53;10545931;28;20484;-54
2021/03/20 15:28:01;;;;;;;6.43;1.80;;;;;;;4.06;25.12;98543.72;10544745;28;20366;-54
2021/03/20 15:33:03;;;;;;;5.68;2.10;;;;;;;3.96;24.93;98545.38;10545377;28;20055;-51
2021/03/20 15:38:07;;;;;;;5.50;1.92;;;;;;;3.78;25.35;98543.22;10543848;28;20425;-53
2021/03/20 15:43:11;;;;;;;;;;;;;;;3.63;24.96;98547.00;10544153;28;20362;-54
2021/03/20 15:48:14;;;;;;;7.70;2.67;;;;;;;3.39;24.92;98531.47;10544816;28;19924;-55
2021/03/20 15:53:17;;;;;;;7.72;2.75;;;;;;;3.25;25.16;98534.25;10543798;28;20051;-53
2021/03/20 15:58:22;;;;;;;5.40;2.47;;;;;;;3.03;26.03;98529.81;10544896;28;20529;-53
2021/03/20 16:03:23;;;;;;;9.05;2.78;;;;;;;2.87;26.13;98514.53;10544164;28;20397;-52
2021/03/20 16:08:29;;;;;;;7.00;2.58;;;;;;;2.72;26.26;98506.91;10542429;28;20062;-52
2021/03/20 16:13:32;;;;;;;7.18;2.70;;;;;;;2.67;26.58;98501.22;10543662;28;20384;-56
2021/03/20 16:18:35;;;;;;;6.28;2.70;;;;;;;2.60;26.07;98496.59;10543595;28;20044;-54
2021/03/20 16:23:37;;;;;;;8.25;2.63;;;;;;;2.56;26.45;98493.38;10546505;28;20055;-54
2021/03/20 16:28:42;;;;;;;6.65;2.75;;;;;;;2.50;26.88;98488.63;10545003;28;20372;-53
2021/03/20 16:33:44;;;;;;;9.90;3.28;;;;;;;2.46;26.57;98482.00;10542108;28;20113;-52
2021/03/20 16:38:47;;;;;;;7.00;2.72;;;;;;;2.41;26.96;98482.34;10542842;28;20059;-52
2021/03/20 16:43:49;;;;;;;8.25;3.38;;;;;;;2.38;27.13;98487.75;10543826;28;20052;-52
2021/03/20 16:48:51;;;;;;;7.93;3.30;;;;;;;2.30;27.45;98484.84;10545522;28;20044;-52
2021/03/20 16:53:54;;;;;;;9.43;2.92;;;;;;;2.21;27.11;98482.91;10546866;28;20094;-56
2021/03/20 16:58:56;;;;;;;8.40;3.25;;;;;;;2.16;27.21;98467.69;10543556;28;20044;-51
2021/03/20 17:03:57;;;;;;;7.93;3.42;;;;;;;2.18;27.83;98467.56;10541558;28;20052;-52
2021/03/20 17:09:05;;;;;;;6.78;2.83;;;;;;;2.12;27.59;98461.03;10541451;28;20544;-55
2021/03/20 17:14:06;;;;;;;7.78;3.22;;;;;;;2.06;28.41;98456.28;10541287;28;20055;-53
2021/03/20 17:19:08;;;;;;;7.75;3.28;;;;;;;1.96;27.94;98442.31;10544513;28;20115;-52
2021/03/20 17:24:11;;;;;;;6.82;3.35;;;;;;;1.96;28.64;98435.38;10541458;28;20059;-52
2021/03/20 17:29:13;;;;;;;6.10;3.00;;;;;;;1.95;28.25;98425.13;10542310;28;20068;-51
2021/03/20 17:34:15;;;;;;;8.52;3.25;;;;;;;1.90;28.47;98424.63;10541373;28;20055;-53
2021/03/20 17:39:17;;;;;;;8.30;3.22;;;;;;;1.89;28.85;98428.16;10540677;28;20047;-52
2021/03/20 17:44:19;;;;;;;9.18;3.72;;;;;;;1.91;29.14;98415.88;10545478;28;20485;-53
2021/03/20 17:49:23;;;;;;;7.85;3.45;;;;;;;1.93;29.16;98420.03;10549269;28;20113;-53
2021/03/20 17:54:25;;;;;;;10.20;3.65;;;;;;;1.90;29.75;98414.25;10548831;28;20056;-54
2021/03/20 17:59:27;;;;;;;6.82;2.85;;;;;;;1.90;29.53;98409.88;10549299;28;20039;-54
2021/03/20 18:04:29;;;;;;;11.15;4.05;;;;;;;2.03;29.68;98402.06;10548509;28;20066;-52
2021/03/20 18:09:32;;;;;;;8.45;2.95;;;;;;;2.12;29.75;98404.00;10548499;28;20518;-52
2021/03/20 18:14:33;;;;;;;7.90;3.23;;;;;;;2.20;29.76;98393.94;10549609;28;20044;-54
2021/03/20 18:19:35;;;;;;;9.30;3.47;;;;;;;2.16;29.56;98389.91;10548342;28;20131;-55
2021/03/20 18:24:37;;;;;;;10.00;3.47;;;;;;;2.17;29.81;98391.56;10551180;28;20136;-54
2021/03/20 18:29:41;;;;;;;11.63;4.28;;;;;;;2.21;30.08;98386.97;10550334;28;20078;-53
2021/03/20 18:34:42;;;;;;;7.57;3.55;;;;;;;2.25;29.80;98378.88;10546460;28;20116;-53
2021/03/20 18:39:45;;;;;;;16.73;3.97;;;;;;;2.21;29.46;98372.25;10551884;28;20043;-55
2021/03/20 18:44:46;;;;;;;8.00;3.17;;;;;;;2.19;29.41;98365.53;10549521;28;20369;-55
2021/03/20 18:49:48;;;;;;;7.35;3.20;;;;;;;2.19;30.03;98358.56;10548259;28;20423;-56
2021/03/20 18:54:51;;;;;;;10.73;3.35;;;;;;;2.18;30.17;98345.72;10548259;28;20177;-53
2021/03/20 18:59:53;;;;;;;8.07;3.28;;;;;;;2.12;30.24;98346.16;10545674;28;20047;-55
2021/03/20 19:04:54;;;;;;;7.55;3.35;;;;;;;2.00;30.17;98340.09;10545726;28;20056;-52
2021/03/20 19:09:58;;;;;;;12.70;3.42;;;;;;;1.94;30.29;98337.94;10549480;28;20072;-51
2021/03/20 19:14:59;;;;;;;9.50;3.33;;;;;;;1.77;30.98;98332.19;10549422;28;20051;-55
2021/03/20 19:20:01;;;;;;;7.35;2.97;;;;;;;1.61;30.83;98329.03;10545844;28;20043;-53
2021/03/20 19:25:05;;;;;;;7.20;2.95;;;;;;;1.51;31.06;98326.28;10545639;28;20059;-51
2021/03/20 19:30:08;;;;;;;5.97;2.78;;;;;;;1.44;31.57;98317.25;10547615;28;20047;-54
2021/03/20 19:35:11;;;;;;;9.60;3.67;;;;;;;1.38;31.61;98326.28;10548320;28;20039;-54
2021/03/20 19:40:18;;;;;;;6.57;2.80;;;;;;;1.51;32.22;98318.50;10544537;28;20162;-52
2021/03/20 19:45:20;;;;;;;7.95;3.40;;;;;;;1.66;32.16;98319.16;10545417;28;20400;-52
2021/03/20 19:50:25;;;;;;;7.63;2.95;;;;;;;1.69;32.02;98313.75;10543641;28;20044;-52
2021/03/20 19:55:28;;;;;;;5.50;2.58;;;;;;;1.74;32.31;98306.50;10542286;28;20455;-53
2021/03/20 20:00:30;;;;;;;7.70;2.13;;;;;;;1.74;32.85;98311.69;10543023;28;20155;-54
2021/03/20 20:05:32;;;;;;;6.68;2.50;;;;;;;1.79;32.71;98307.00;10543818;28;20400;-53
2021/03/20 20:10:35;;;;;;;6.93;2.30;;;;;;;1.93;32.93;98294.81;10544135;28;20134;-55
2021/03/20 20:15:39;;;;;;;5.25;2.00;;;;;;;2.12;32.49;98286.53;10543542;28;20465;-52
2021/03/20 20:20:42;;;;;;;6.20;2.60;;;;;;;2.03;32.34;98280.25;10542811;28;20083;-53
2021/03/20 20:25:44;;;;;;;6.35;2.55;;;;;;;1.99;32.39;98273.63;10542378;28;20101;-53
2021/03/20 20:30:46;;;;;;;7.55;2.90;;;;;;;2.05;32.56;98268.00;10541729;28;20056;-53
2021/03/20 20:35:48;;;;;;;7.65;2.47;;;;;;;2.18;32.53;98265.34;10541739;28;20112;-53
2021/03/20 20:40:50;;;;;;;6.68;2.60;;;;;;;2.31;32.87;98263.50;10542953;28;20074;-54
2021/03/20 20:45:57;;;;;;;5.50;2.80;;;;;;;2.24;33.34;98257.94;10545901;28;20104;-52
2021/03/20 20:50:58;;;;;;;6.53;2.40;;;;;;;2.13;33.86;98270.88;10542092;28;20078;-52
2021/03/20 20:56:01;;;;;;;6.72;2.78;;;;;;;2.03;34.48;98270.72;10541299;28;20062;-53
2021/03/20 21:01:05;;;;;;;6.85;2.80;;;;;;;2.28;34.63;98272.34;10542190;28;20101;-54
2021/03/20 21:06:06;;;;;;;10.80;3.20;;;;;;;2.37;34.92;98268.25;10543842;28;20044;-55
2021/03/20 21:11:10;;;;;;;7.78;3.33;;;;;;;2.09;35.87;98269.44;10541538;28;20052;-52
2021/03/20 21:16:11;;;;;;;6.65;2.88;;;;;;;2.08;35.97;98257.41;10543843;28;20040;-56
2021/03/20 21:21:13;;;;;;;5.88;2.75;;;;;;;2.01;36.52;98257.03;10550130;28;20067;-53
2021/03/20 21:26:16;;;;;;;7.45;3.67;;;;;;;1.82;36.56;98251.56;10549816;28;20142;-54
2021/03/20 21:31:18;;;;;;;6.68;2.92;;;;;;;1.67;36.43;98248.31;10549422;28;20384;-55
2021/03/20 21:36:21;;;;;;;8.73;3.53;;;;;;;1.52;37.29;98237.28;10549157;28;20108;-52
2021/03/20 21:41:25;;;;;;;6.23;2.83;;;;;;;1.45;36.95;98232.63;10550976;28;20397;-52
2021/03/20 21:46:27;;;;;;;6.57;2.65;;;;;;;1.41;37.48;98226.84;10550264;28;20082;-52
2021/03/20 21:51:29;;;;;;;7.75;3.03;;;;;;;1.37;37.46;98223.66;10551427;28;20134;-54
2021/03/20 21:56:32;;;;;;;5.72;2.88;;;;;;;1.23;37.47;98218.66;10548576;28;20040;-53
2021/03/20 22:01:33;;;;;;;5.85;2.83;;;;;;;1.17;37.52;98213.06;10550837;28;20056;-53
2021/03/20 22:06:35;;;;;;;8.20;3.22;;;;;;;1.08;37.65;98212.78;10548160;28;20484;-59
2021/03/20 22:11:38;;;;;;;6.05;2.33;;;;;;;0.90;39.07;98208.88;10548344;28;20392;-52
2021/03/20 22:16:40;;;;;;;6.97;2.70;;;;;;;0.96;39.07;98216.22;10547861;28;20376;-54
2021/03/20 22:21:42;;;;;;;8.50;3.17;;;;;;;1.03;38.66;98204.50;10547224;28;20057;-52
2021/03/20 22:26:44;;;;;;;10.80;3.75;;;;;;;0.99;38.88;98202.25;10547160;28;20051;-55
2021/03/20 22:31:46;;;;;;;7.40;3.10;;;;;;;0.81;38.76;98192.25;10550895;28;20109;-60
2021/03/20 22:36:47;;;;;;;7.05;3.03;;;;;;;0.65;38.94;98187.31;10552208;28;20040;-55
2021/03/20 22:41:50;;;;;;;8.32;3.38;;;;;;;0.59;38.96;98179.97;10548622;28;20532;-53
2021/03/20 22:46:51;;;;;;;9.82;3.55;;;;;;;0.53;38.76;98185.56;10548934;28;20055;-54
2021/03/20 22:51:53;;;;;;;7.00;3.25;;;;;;;0.58;38.94;98180.06;10546658;28;20048;-53
2021/03/20 22:56:56;;;;;;;6.68;2.80;;;;;;;0.66;39.02;98170.03;10546764;28;20047;-54
2021/03/20 23:01:57;;;;;;;8.32;3.20;;;;;;;0.67;38.83;98169.91;10546344;28;20056;-51
2021/03/20 23:06:59;;;;;;;6.10;2.60;;;;;;;0.67;39.04;98158.72;10546657;28;20044;-53
2021/03/20 23:12:01;;;;;;;6.93;3.22;;;;;;;0.66;39.31;98151.91;10546369;28;20455;-53
2021/03/20 23:17:05;;;;;;;7.45;3.13;;;;;;;0.78;39.42;98143.31;10546974;28;20048;-52
2021/03/20 23:22:08;;;;;;;8.02;3.30;;;;;;;0.84;39.03;98142.06;10548513;28;20067;-52
2021/03/20 23:27:11;;;;;;;8.45;3.63;;;;;;;0.95;39.34;98130.94;10545374;28;20047;-54
2021/03/20 23:32:13;;;;;;;5.68;3.00;;;;;;;1.04;39.39;98122.50;10544705;28;20408;-54
2021/03/20 23:37:14;;;;;;;7.65;3.30;;;;;;;1.15;39.13;98122.59;10545061;28;20057;-53
2021/03/20 23:42:17;;;;;;;7.68;2.90;;;;;;;1.27;39.68;98116.53;10545441;28;20508;-55
2021/03/20 23:47:18;;;;;;;7.38;2.75;;;;;;;1.32;39.33;98111.81;10544528;28;20044;-52
2021/03/20 23:52:20;;;;;;;9.57;3.25;;;;;;;1.41;39.15;98109.50;10543593;28;20112;-53
2021/03/20 23:57:22;;;;;;;8.48;3.10;;;;;;;1.47;39.74;98102.09;10543747;28;20048;-58
